Time;durP1;ratioP1;P1;durP2;ratioP2;P2;SDS_P1;SDS_P2;PMS_P1;PMS_P2;Temp;Humidity;BMP_temperature;BMP_pressure;BME280_temperature;BME280_humidity;BME280_pressure;Samples;Min_cycle;Max_cycle;Signal;HPM_P1;HPM_P2
2021/10/13 00:01:53;;;;;;;72.47;69.03;;;6.90;99.90;;;;;;4346607;33;20202;-65
2021/10/13 00:04:21;;;;;;;70.63;67.53;;;6.90;99.90;;;;;;4348012;33;20145;-65
2021/10/13 00:06:48;;;;;;;77.07;73.17;;;6.90;99.90;;;;;;4347547;33;20149;-65
2021/10/13 00:09:15;;;;;;;73.17;69.83;;;6.90;99.90;;;;;;4347590;33;20165;-65
2021/10/13 00:11:42;;;;;;;70.73;67.57;;;6.90;99.90;;;;;;4347716;33;20167;-65
2021/10/13 00:14:09;;;;;;;71.70;68.40;;;6.80;99.90;;;;;;4345907;33;20145;-65
2021/10/13 00:16:37;;;;;;;85.43;81.30;;;6.90;99.90;;;;;;4347199;33;20200;-65
2021/10/13 00:19:04;;;;;;;80.83;76.43;;;6.90;99.90;;;;;;4347411;33;20138;-65
2021/10/13 00:21:32;;;;;;;77.10;73.57;;;6.90;99.90;;;;;;4347134;33;20141;-65
2021/10/13 00:23:59;;;;;;;78.13;74.50;;;6.90;99.90;;;;;;4347018;33;20160;-65
2021/10/13 00:26:25;;;;;;;78.70;74.77;;;6.90;99.90;;;;;;4346461;33;20628;-65
2021/10/13 00:28:52;;;;;;;84.93;80.90;;;6.90;99.90;;;;;;4347901;33;20156;-65
2021/10/13 00:31:19;;;;;;;81.93;77.83;;;6.80;99.90;;;;;;4346383;33;20516;-64
2021/10/13 00:33:46;;;;;;;87.40;82.97;;;6.80;99.90;;;;;;4347243;33;20141;-65
2021/10/13 00:36:13;;;;;;;82.03;78.23;;;6.80;99.90;;;;;;4347806;33;20137;-65
2021/10/13 00:38:44;;;;;;;92.70;88.20;;;6.80;99.90;;;;;;4346120;33;20157;-66
2021/10/13 00:41:11;;;;;;;89.90;85.90;;;6.80;99.90;;;;;;4346161;33;20232;-66
2021/10/13 00:43:38;;;;;;;81.67;77.27;;;6.80;99.90;;;;;;4345658;33;20168;-66
2021/10/13 00:46:06;;;;;;;86.87;83.13;;;6.70;99.90;;;;;;4345276;33;20165;-65
2021/10/13 00:48:32;;;;;;;84.60;80.80;;;6.70;99.90;;;;;;4345877;33;20141;-65
2021/10/13 00:50:59;;;;;;;87.63;83.20;;;6.70;99.90;;;;;;4347618;33;20141;-66
2021/10/13 00:53:26;;;;;;;85.80;81.80;;;6.70;99.90;;;;;;4345839;33;20169;-65
2021/10/13 00:55:56;;;;;;;87.37;83.37;;;6.70;99.90;;;;;;4345630;33;20191;-66
2021/10/13 00:58:23;;;;;;;93.13;88.63;;;6.70;99.90;;;;;;4345566;33;20141;-65
2021/10/13 01:01:09;;;;;;;85.77;81.73;;;6.70;99.90;;;;;;4345967;33;20146;-65
2021/10/13 01:03:43;;;;;;;83.27;79.13;;;6.70;99.90;;;;;;4345238;33;20180;-65
2021/10/13 01:06:17;;;;;;;85.03;80.83;;;6.70;99.90;;;;;;4346038;33;20496;-65
2021/10/13 01:08:53;;;;;;;94.43;90.23;;;6.70;99.90;;;;;;4346145;33;20140;-65
2021/10/13 01:11:30;;;;;;;88.43;84.40;;;6.70;99.90;;;;;;4346293;33;20168;-65
2021/10/13 01:14:08;;;;;;;90.80;86.53;;;6.80;99.90;;;;;;4346089;33;20149;-66
2021/10/13 01:16:44;;;;;;;92.13;88.10;;;6.90;99.90;;;;;;4345764;33;20488;-65
2021/10/13 01:19:20;;;;;;;92.00;88.03;;;6.80;99.90;;;;;;4346706;33;20152;-65
2021/10/13 01:22:08;;;;;;;94.87;90.50;;;6.80;99.90;;;;;;4344828;33;20163;-65
2021/10/13 01:24:46;;;;;;;88.13;84.10;;;6.90;99.90;;;;;;4345057;33;20226;-65
2021/10/13 01:27:53;;;;;;;91.57;87.43;;;6.90;99.90;;;;;;4344756;33;20180;-66
2021/10/13 01:30:21;;;;;;;90.17;85.97;;;7.00;99.90;;;;;;4299652;33;20165;-66
2021/10/13 01:32:57;;;;;;;91.27;87.27;;;7.00;99.90;;;;;;4298751;33;20155;-65
2021/10/13 01:35:25;;;;;;;89.77;85.77;;;6.90;99.90;;;;;;4298454;33;20176;-64
2021/10/13 01:37:55;;;;;;;92.50;88.50;;;6.80;99.90;;;;;;4299087;33;20154;-65
2021/10/13 01:40:26;;;;;;;90.43;86.40;;;6.90;99.90;;;;;;4298681;33;20150;-64
2021/10/13 01:42:56;;;;;;;88.13;83.87;;;6.90;99.90;;;;;;4299294;33;20155;-65
2021/10/13 01:45:24;;;;;;;85.17;81.60;;;6.90;99.90;;;;;;4297129;33;20169;-64
2021/10/13 01:47:52;;;;;;;93.00;88.77;;;7.00;99.90;;;;;;4299820;33;20150;-65
2021/10/13 01:50:20;;;;;;;104.47;99.87;;;7.10;99.90;;;;;;4299706;33;20201;-65
2021/10/13 01:52:49;;;;;;;100.83;96.47;;;7.10;99.90;;;;;;4299330;33;20175;-65
2021/10/13 01:55:19;;;;;;;104.43;99.47;;;7.20;99.90;;;;;;4300258;33;20184;-65
2021/10/13 01:57:49;;;;;;;97.97;93.70;;;7.30;99.90;;;;;;4298993;33;20163;-66
2021/10/13 02:00:21;;;;;;;97.00;92.80;;;7.30;99.90;;;;;;4299565;33;20230;-66
2021/10/13 02:02:49;;;;;;;102.63;97.90;;;7.30;99.90;;;;;;4298681;33;20634;-65
2021/10/13 02:05:17;;;;;;;101.80;97.53;;;7.30;99.90;;;;;;4333875;33;20147;-66
2021/10/13 02:07:47;;;;;;;104.47;99.50;;;7.30;99.90;;;;;;4344619;33;20143;-65
2021/10/13 02:10:17;;;;;;;98.07;93.93;;;7.30;99.90;;;;;;4346301;33;20481;-65
2021/10/13 02:12:47;;;;;;;92.20;87.80;;;7.20;99.90;;;;;;4344895;33;20153;-64
2021/10/13 02:15:17;;;;;;;84.43;80.53;;;7.10;99.90;;;;;;4339031;33;20165;-65
2021/10/13 02:17:47;;;;;;;87.90;83.73;;;7.10;99.90;;;;;;4344629;33;20161;-65
2021/10/13 02:20:16;;;;;;;94.77;90.67;;;7.00;99.90;;;;;;4345240;33;20161;-65
2021/10/13 02:22:47;;;;;;;96.53;92.20;;;7.00;99.90;;;;;;4346767;33;20535;-65
2021/10/13 02:25:14;;;;;;;99.97;95.57;;;7.00;99.90;;;;;;4345725;33;20146;-65
2021/10/13 02:27:47;;;;;;;103.67;98.87;;;7.10;99.90;;;;;;4344805;33;20558;-65
2021/10/13 02:30:15;;;;;;;100.00;95.87;;;7.10;99.90;;;;;;4345408;33;20146;-65
2021/10/13 02:32:43;;;;;;;99.07;94.70;;;7.10;99.90;;;;;;4345769;33;20193;-65
2021/10/13 02:35:10;;;;;;;100.93;96.43;;;7.00;99.90;;;;;;4344411;33;20141;-65
2021/10/13 02:37:38;;;;;;;87.20;83.20;;;7.00;99.90;;;;;;4344785;33;20191;-65
2021/10/13 02:40:06;;;;;;;87.50;83.70;;;6.90;99.90;;;;;;4344023;33;20172;-65
2021/10/13 02:42:34;;;;;;;101.60;97.37;;;6.80;99.90;;;;;;4344669;33;20178;-65
2021/10/13 02:45:01;;;;;;;94.10;89.97;;;6.80;99.90;;;;;;4344189;33;20164;-62
2021/10/13 02:47:33;;;;;;;99.73;95.17;;;6.90;99.90;;;;;;4344454;33;20138;-62
2021/10/13 02:50:11;;;;;;;91.63;87.43;;;6.80;99.90;;;;;;4341189;33;20156;-65
2021/10/13 02:52:43;;;;;;;90.37;86.53;;;6.80;99.90;;;;;;4347197;33;20145;-65
2021/10/13 02:55:17;;;;;;;104.33;99.77;;;6.80;99.90;;;;;;4339537;33;20164;-65
2021/10/13 02:57:47;;;;;;;93.10;89.00;;;6.80;99.90;;;;;;4347453;33;20213;-65
2021/10/13 03:00:16;;;;;;;100.60;96.40;;;6.90;99.90;;;;;;4348129;33;20145;-65
2021/10/13 03:02:58;;;;;;;101.20;96.97;;;6.90;99.90;;;;;;4346637;33;20188;-63
2021/10/13 03:05:28;;;;;;;99.47;95.13;;;7.00;99.90;;;;;;4343596;33;20165;-63
2021/10/13 03:08:02;;;;;;;112.43;107.50;;;7.00;99.90;;;;;;4349408;33;20165;-64
2021/10/13 03:10:30;;;;;;;103.20;98.70;;;7.00;99.90;;;;;;4348693;33;20160;-63
2021/10/13 03:12:59;;;;;;;104.33;99.87;;;6.90;99.90;;;;;;4347875;33;20142;-63
2021/10/13 03:15:28;;;;;;;112.50;107.60;;;6.80;99.90;;;;;;4347052;33;20179;-63
2021/10/13 03:17:57;;;;;;;97.10;92.80;;;6.90;99.90;;;;;;4347626;33;20150;-63
2021/10/13 03:20:27;;;;;;;105.23;100.73;;;6.80;99.90;;;;;;4346479;33;20162;-63
2021/10/13 03:22:58;;;;;;;103.43;98.93;;;6.80;99.90;;;;;;4347284;33;20172;-63
2021/10/13 03:25:27;;;;;;;107.70;102.50;;;6.80;99.90;;;;;;4356739;32;20160;-63
2021/10/13 03:27:55;;;;;;;104.90;100.03;;;6.90;99.90;;;;;;4347459;33;20196;-63
2021/10/13 03:30:22;;;;;;;107.30;102.47;;;7.00;99.90;;;;;;4347523;33;20511;-63
2021/10/13 03:32:50;;;;;;;109.47;104.53;;;7.10;99.90;;;;;;4348269;33;20221;-63
2021/10/13 03:35:24;;;;;;;113.57;108.17;;;7.20;99.90;;;;;;4347522;33;20169;-63
2021/10/13 03:37:53;;;;;;;105.23;100.83;;;7.20;99.90;;;;;;4346993;33;20225;-63
2021/10/13 03:40:20;;;;;;;120.17;114.13;;;7.30;99.90;;;;;;4347645;33;20240;-63
2021/10/13 03:42:48;;;;;;;120.67;115.50;;;7.30;99.90;;;;;;4347229;33;20143;-63
2021/10/13 03:45:15;;;;;;;115.57;110.53;;;7.20;99.90;;;;;;4346997;33;20145;-63
2021/10/13 03:47:42;;;;;;;112.47;107.23;;;7.10;99.90;;;;;;4346503;33;20150;-63
2021/10/13 03:50:11;;;;;;;112.57;106.77;;;7.10;99.90;;;;;;4348665;33;20159;-63
2021/10/13 03:52:38;;;;;;;114.70;109.80;;;7.10;99.90;;;;;;4345798;33;20177;-63
2021/10/13 03:55:08;;;;;;;110.63;106.07;;;7.10;99.90;;;;;;4346499;33;20215;-63
2021/10/13 03:57:35;;;;;;;108.77;104.17;;;7.00;99.90;;;;;;4346885;33;20138;-63
2021/10/13 04:00:03;;;;;;;111.60;106.80;;;7.00;99.90;;;;;;4345920;33;20228;-64
2021/10/13 04:02:29;;;;;;;103.17;98.83;;;7.00;99.90;;;;;;4347360;33;20153;-63
2021/10/13 04:04:56;;;;;;;115.73;110.77;;;6.90;99.90;;;;;;4346362;33;20163;-63
2021/10/13 04:07:23;;;;;;;111.57;106.77;;;6.90;99.90;;;;;;4346071;33;20255;-63
2021/10/13 04:09:50;;;;;;;109.97;104.77;;;6.90;99.90;;;;;;4347065;33;20209;-63
2021/10/13 04:12:18;;;;;;;109.70;104.90;;;6.80;99.90;;;;;;4347418;33;20477;-63
2021/10/13 04:14:45;;;;;;;121.27;116.20;;;6.80;99.90;;;;;;4347069;33;20146;-63
2021/10/13 04:17:12;;;;;;;117.63;112.77;;;6.80;99.90;;;;;;4347903;33;20229;-63
2021/10/13 04:19:39;;;;;;;122.53;117.43;;;6.80;99.90;;;;;;4346406;33;20149;-64
2021/10/13 04:22:05;;;;;;;130.37;124.70;;;6.90;99.90;;;;;;4346544;33;20191;-63
2021/10/13 04:24:32;;;;;;;108.23;103.67;;;6.90;99.90;;;;;;4346041;33;20159;-63
2021/10/13 04:26:59;;;;;;;114.77;109.97;;;6.90;99.90;;;;;;4346670;33;20180;-63
2021/10/13 04:29:27;;;;;;;120.33;115.10;;;6.90;99.90;;;;;;4347437;33;20164;-62
2021/10/13 04:31:54;;;;;;;112.53;107.40;;;6.90;99.90;;;;;;4346236;33;20228;-63
2021/10/13 04:34:22;;;;;;;107.63;103.07;;;6.90;99.90;;;;;;4346802;33;20156;-63
2021/10/13 04:36:49;;;;;;;114.03;108.80;;;6.80;99.90;;;;;;4346112;33;20161;-63
2021/10/13 04:39:16;;;;;;;110.33;105.67;;;6.80;99.90;;;;;;4348066;33;20426;-64
2021/10/13 04:41:43;;;;;;;110.40;105.70;;;6.70;99.90;;;;;;4347389;33;20696;-64
2021/10/13 04:44:10;;;;;;;115.87;110.63;;;6.70;99.90;;;;;;4346175;33;20212;-64
2021/10/13 04:46:38;;;;;;;104.57;100.23;;;6.70;99.90;;;;;;4347071;33;20137;-63
2021/10/13 04:49:05;;;;;;;107.53;103.03;;;6.70;99.90;;;;;;4346230;33;20161;-64
2021/10/13 04:51:31;;;;;;;121.07;115.87;;;6.70;99.90;;;;;;4345746;33;20165;-63
2021/10/13 04:53:58;;;;;;;116.87;111.57;;;6.60;99.90;;;;;;4345203;33;20526;-63
2021/10/13 04:56:25;;;;;;;106.17;101.27;;;6.60;99.90;;;;;;4332554;33;20576;-63
2021/10/13 04:58:52;;;;;;;110.23;105.37;;;6.50;99.90;;;;;;4345903;33;20164;-63
2021/10/13 05:01:19;;;;;;;129.67;123.87;;;6.50;99.90;;;;;;4344762;33;20168;-63
2021/10/13 05:03:47;;;;;;;119.67;114.73;;;6.50;99.90;;;;;;4345446;33;20600;-64
2021/10/13 05:06:14;;;;;;;118.23;112.80;;;6.50;99.90;;;;;;4342621;33;20181;-63
2021/10/13 05:08:41;;;;;;;112.67;107.53;;;6.50;99.90;;;;;;4332446;33;20454;-63
2021/10/13 05:11:07;;;;;;;114.07;109.20;;;6.40;99.90;;;;;;4343901;33;20161;-63
2021/10/13 05:13:35;;;;;;;117.50;112.47;;;6.40;99.90;;;;;;4344720;33;20177;-63
2021/10/13 05:16:01;;;;;;;126.10;120.67;;;6.40;99.90;;;;;;4345184;33;20162;-63
2021/10/13 05:18:28;;;;;;;124.07;118.47;;;6.30;99.90;;;;;;4354537;32;20458;-62
2021/10/13 05:20:57;;;;;;;120.93;115.37;;;6.30;99.90;;;;;;4346790;33;20608;-63
2021/10/13 05:23:23;;;;;;;124.87;119.63;;;6.30;99.90;;;;;;4347973;33;20207;-63
2021/10/13 05:25:50;;;;;;;121.53;116.27;;;6.20;99.90;;;;;;4339731;32;20255;-63
2021/10/13 05:28:17;;;;;;;123.43;117.87;;;6.30;99.90;;;;;;4340022;33;20160;-63
2021/10/13 05:30:44;;;;;;;124.33;119.13;;;6.30;99.90;;;;;;4338557;33;20612;-64
2021/10/13 05:33:11;;;;;;;116.87;111.63;;;6.40;99.90;;;;;;4337233;33;20155;-63
2021/10/13 05:35:37;;;;;;;123.07;117.77;;;6.50;99.90;;;;;;4337882;33;20167;-63
2021/10/13 05:38:06;;;;;;;118.23;112.83;;;6.50;99.90;;;;;;4337577;33;20192;-63
2021/10/13 05:40:33;;;;;;;118.70;113.50;;;6.60;99.90;;;;;;4343435;33;20164;-63
2021/10/13 05:42:59;;;;;;;143.90;137.63;;;6.60;99.90;;;;;;4342033;33;20238;-63
2021/10/13 05:45:26;;;;;;;152.57;145.90;;;6.80;99.90;;;;;;4343438;32;20175;-63
2021/10/13 05:47:53;;;;;;;162.23;155.43;;;6.90;99.90;;;;;;4344005;33;20152;-63
2021/10/13 05:50:23;;;;;;;152.10;145.67;;;7.00;99.90;;;;;;4347824;32;20540;-63
2021/10/13 05:52:52;;;;;;;136.83;130.97;;;7.00;99.90;;;;;;4352591;33;20209;-63
2021/10/13 05:55:20;;;;;;;135.30;129.43;;;7.10;99.90;;;;;;4353972;33;20142;-64
2021/10/13 05:57:47;;;;;;;133.30;127.63;;;7.10;99.90;;;;;;4350985;33;20145;-63
2021/10/13 06:00:15;;;;;;;140.50;134.57;;;7.20;99.90;;;;;;4354188;33;20210;-63
2021/10/13 06:02:41;;;;;;;131.97;126.30;;;7.30;99.90;;;;;;4341283;33;20213;-64
2021/10/13 06:05:08;;;;;;;134.33;128.80;;;7.30;99.90;;;;;;4342185;33;20208;-63
2021/10/13 06:07:38;;;;;;;136.70;130.93;;;7.30;99.90;;;;;;4339976;33;20498;-63
2021/10/13 06:10:05;;;;;;;125.60;120.30;;;7.40;99.90;;;;;;4340883;33;20280;-63
2021/10/13 06:12:34;;;;;;;120.37;115.30;;;7.40;99.90;;;;;;4345618;33;20176;-63
2021/10/13 06:15:01;;;;;;;134.27;128.63;;;7.50;99.90;;;;;;4343607;33;20162;-64
2021/10/13 06:17:27;;;;;;;133.40;127.67;;;7.40;99.90;;;;;;4341804;33;20289;-63
2021/10/13 06:19:54;;;;;;;135.77;129.67;;;7.40;99.90;;;;;;4341716;33;20211;-62
2021/10/13 06:22:21;;;;;;;123.73;118.13;;;7.30;99.90;;;;;;4338617;33;20167;-63
2021/10/13 06:24:48;;;;;;;134.47;128.47;;;7.20;99.90;;;;;;4343902;33;20217;-63
2021/10/13 06:27:14;;;;;;;121.63;116.13;;;7.20;99.90;;;;;;4348416;33;20643;-62
2021/10/13 06:29:43;;;;;;;131.63;126.03;;;7.20;99.90;;;;;;4337878;33;20162;-63
2021/10/13 06:32:10;;;;;;;125.03;119.80;;;7.10;99.90;;;;;;4338242;33;20569;-63
2021/10/13 06:34:36;;;;;;;122.00;116.77;;;7.10;99.90;;;;;;4333589;33;20137;-62
2021/10/13 06:37:04;;;;;;;122.97;117.43;;;7.00;99.90;;;;;;4333470;33;20153;-63
2021/10/13 06:39:30;;;;;;;122.47;117.17;;;7.00;99.90;;;;;;4334443;33;20138;-63
2021/10/13 06:41:57;;;;;;;131.67;126.10;;;7.10;99.90;;;;;;4333378;33;20148;-62
2021/10/13 06:44:25;;;;;;;123.70;118.50;;;7.10;99.90;;;;;;4357410;33;20185;-62
2021/10/13 06:46:54;;;;;;;139.17;132.63;;;7.10;99.90;;;;;;4358568;32;20481;-63
2021/10/13 06:49:21;;;;;;;125.40;119.83;;;7.20;99.90;;;;;;4349711;33;20138;-63
2021/10/13 06:51:50;;;;;;;125.00;119.47;;;7.20;99.90;;;;;;4349395;33;20509;-63
2021/10/13 06:54:17;;;;;;;129.90;124.50;;;7.20;99.90;;;;;;4348725;33;20157;-63
2021/10/13 06:56:44;;;;;;;126.90;121.47;;;7.30;99.90;;;;;;4362603;32;20156;-62
2021/10/13 06:59:11;;;;;;;140.77;134.57;;;7.40;99.90;;;;;;4362657;33;20152;-63
2021/10/13 07:01:38;;;;;;;136.10;130.40;;;7.50;99.90;;;;;;4351791;32;20177;-63
2021/10/13 07:04:06;;;;;;;128.97;123.53;;;7.70;99.90;;;;;;4347618;33;20259;-63
2021/10/13 07:06:33;;;;;;;136.53;130.53;;;7.80;99.90;;;;;;4347908;32;20171;-63
2021/10/13 07:08:59;;;;;;;122.30;117.17;;;8.00;99.90;;;;;;4348346;33;20236;-62
2021/10/13 07:11:26;;;;;;;130.13;124.67;;;8.20;99.90;;;;;;4347655;33;20160;-62
2021/10/13 07:13:53;;;;;;;126.07;120.67;;;8.50;99.90;;;;;;4353318;32;20220;-63
2021/10/13 07:16:20;;;;;;;118.03;112.83;;;8.60;99.90;;;;;;4356880;32;20586;-62
2021/10/13 07:18:50;;;;;;;119.03;113.90;;;8.70;99.90;;;;;;4358880;33;20157;-62
2021/10/13 07:21:21;;;;;;;110.60;105.87;;;8.70;99.90;;;;;;4355874;33;20534;-62
2021/10/13 07:23:48;;;;;;;93.73;89.70;;;8.70;99.90;;;;;;4347739;33;20152;-63
2021/10/13 07:26:15;;;;;;;90.07;86.17;;;8.70;99.90;;;;;;4347758;33;20495;-62
2021/10/13 07:28:42;;;;;;;84.67;80.90;;;8.90;99.90;;;;;;4347615;33;20137;-64
2021/10/13 07:31:09;;;;;;;98.23;93.90;;;9.10;99.90;;;;;;4347565;33;20156;-62
2021/10/13 07:33:36;;;;;;;124.40;118.80;;;9.40;99.90;;;;;;4347509;33;20212;-63
2021/10/13 07:36:03;;;;;;;116.70;111.63;;;9.90;99.90;;;;;;4348226;33;20211;-63
2021/10/13 07:38:34;;;;;;;101.67;97.20;;;10.30;99.90;;;;;;4343124;33;20183;-63
2021/10/13 07:41:01;;;;;;;96.50;92.23;;;10.60;99.90;;;;;;4347901;33;20488;-62
2021/10/13 07:43:29;;;;;;;75.07;71.77;;;10.80;99.90;;;;;;4348887;33;20477;-63
2021/10/13 07:45:58;;;;;;;61.00;57.83;;;10.90;99.90;;;;;;4346950;33;20147;-64
2021/10/13 07:48:25;;;;;;;56.50;53.27;;;11.10;99.90;;;;;;4347978;33;20165;-62
2021/10/13 07:50:52;;;;;;;52.57;50.03;;;11.20;99.90;;;;;;4348912;33;20151;-64
2021/10/13 07:53:19;;;;;;;48.10;45.67;;;11.30;99.90;;;;;;4347562;33;20149;-63
2021/10/13 07:55:47;;;;;;;47.10;44.40;;;11.30;99.90;;;;;;4348914;33;20175;-63
2021/10/13 07:58:15;;;;;;;42.87;40.77;;;11.10;99.90;;;;;;4347127;33;20125;-63
2021/10/13 08:00:41;;;;;;;51.23;47.90;;;11.10;99.90;;;;;;4348187;33;20157;-62
2021/10/13 08:03:08;;;;;;;45.53;43.03;;;11.30;99.90;;;;;;4346917;33;20149;-63
2021/10/13 08:05:35;;;;;;;44.50;42.27;;;11.50;99.90;;;;;;4347107;33;20252;-62
2021/10/13 08:08:02;;;;;;;43.10;40.63;;;11.70;99.90;;;;;;4348051;33;20161;-62
2021/10/13 08:10:29;;;;;;;47.27;44.53;;;11.90;99.90;;;;;;4347173;33;20137;-62
2021/10/13 08:12:57;;;;;;;41.17;39.10;;;12.10;99.90;;;;;;4348700;32;20203;-63
2021/10/13 08:15:24;;;;;;;40.53;38.63;;;12.40;99.90;;;;;;4362987;32;20554;-63
2021/10/13 08:17:50;;;;;;;44.97;42.57;;;12.50;99.90;;;;;;4363258;32;20137;-63
2021/10/13 08:20:17;;;;;;;41.53;39.40;;;12.50;99.90;;;;;;4363277;32;20635;-65
2021/10/13 08:22:46;;;;;;;43.50;41.37;;;12.60;99.90;;;;;;4363301;32;20125;-64
2021/10/13 08:25:13;;;;;;;47.90;45.37;;;12.70;99.90;;;;;;4361540;33;20195;-64
2021/10/13 08:27:40;;;;;;;44.97;42.47;;;12.60;99.90;;;;;;4362980;32;20206;-62
2021/10/13 08:30:12;;;;;;;43.37;41.37;;;12.70;99.90;;;;;;4363132;32;20138;-63
2021/10/13 08:32:39;;;;;;;46.37;44.13;;;12.90;99.90;;;;;;4361475;33;20172;-64
2021/10/13 08:35:08;;;;;;;42.67;40.40;;;13.10;99.90;;;;;;4363084;32;20522;-65
2021/10/13 08:37:36;;;;;;;39.47;37.57;;;13.20;99.90;;;;;;4361265;33;20223;-65
2021/10/13 08:40:03;;;;;;;38.80;36.80;;;13.20;99.90;;;;;;4361655;32;20523;-63
2021/10/13 08:42:34;;;;;;;38.47;36.40;;;13.20;99.90;;;;;;4361275;33;20140;-62
2021/10/13 08:45:09;;;;;;;38.23;36.33;;;13.20;99.90;;;;;;4362068;32;20132;-63
2021/10/13 08:47:39;;;;;;;37.90;36.00;;;13.20;99.90;;;;;;4350081;32;20172;-63
2021/10/13 08:50:06;;;;;;;39.27;37.00;;;13.00;99.90;;;;;;4347175;33;20596;-63
2021/10/13 08:52:33;;;;;;;42.13;40.03;;;12.80;99.90;;;;;;4355151;33;20169;-63
2021/10/13 08:54:59;;;;;;;41.67;39.40;;;12.70;99.90;;;;;;4362350;32;20204;-64
2021/10/13 08:57:28;;;;;;;38.07;35.90;;;12.80;99.90;;;;;;4352255;33;20187;-63
2021/10/13 08:59:55;;;;;;;39.10;37.03;;;13.00;99.90;;;;;;4349058;33;20640;-64
2021/10/13 09:02:39;;;;;;;38.00;35.80;;;13.30;99.90;;;;;;4354203;33;20172;-64
2021/10/13 09:05:10;;;;;;;39.50;37.40;;;13.60;99.90;;;;;;4351549;33;20252;-64
2021/10/13 09:07:38;;;;;;;37.33;34.77;;;13.90;99.90;;;;;;4352885;33;20221;-64
2021/10/13 09:10:06;;;;;;;33.30;31.80;;;14.10;99.90;;;;;;4360459;33;20184;-63
2021/10/13 09:12:38;;;;;;;34.50;32.40;;;14.20;99.90;;;;;;4362352;32;20553;-64
2021/10/13 09:15:08;;;;;;;29.40;27.47;;;14.50;99.90;;;;;;4348644;32;20191;-63
2021/10/13 09:17:53;;;;;;;34.53;32.63;;;14.60;99.90;;;;;;4347688;33;20199;-63
2021/10/13 09:20:22;;;;;;;31.97;30.27;;;14.70;99.90;;;;;;4346045;33;20133;-64
2021/10/13 09:23:01;;;;;;;33.07;31.37;;;14.60;99.90;;;;;;4345662;33;20158;-64
2021/10/13 09:25:29;;;;;;;30.13;28.70;;;14.40;99.90;;;;;;4345783;33;20140;-64
2021/10/13 09:27:58;;;;;;;27.40;26.00;;;14.50;99.90;;;;;;4347348;33;20672;-64
2021/10/13 09:30:28;;;;;;;28.07;26.57;;;14.40;99.90;;;;;;4345919;33;20178;-64
2021/10/13 09:33:07;;;;;;;29.77;27.87;;;14.10;99.90;;;;;;4345768;33;20168;-64
2021/10/13 09:35:34;;;;;;;30.90;29.30;;;13.90;99.90;;;;;;4345484;33;20515;-64
2021/10/13 09:38:01;;;;;;;31.30;29.80;;;13.90;99.90;;;;;;4346758;33;20224;-63
2021/10/13 09:40:30;;;;;;;28.80;27.27;;;14.10;99.90;;;;;;4345741;33;20217;-64
2021/10/13 09:42:59;;;;;;;29.00;27.60;;;14.60;99.90;;;;;;4345767;33;20221;-65
2021/10/13 09:45:30;;;;;;;28.23;26.87;;;14.70;99.90;;;;;;4345623;33;20149;-65
2021/10/13 09:48:04;;;;;;;30.93;29.60;;;14.90;99.90;;;;;;4345604;33;20158;-64
2021/10/13 09:50:43;;;;;;;24.80;23.37;;;15.10;99.90;;;;;;4347451;33;20133;-63
2021/10/13 09:53:21;;;;;;;26.03;24.60;;;15.00;99.90;;;;;;4345893;33;20137;-65
2021/10/13 09:55:49;;;;;;;25.97;24.77;;;14.80;99.90;;;;;;4347220;33;20206;-63
2021/10/13 09:58:26;;;;;;;29.33;27.83;;;14.40;99.90;;;;;;4348397;33;20628;-65
2021/10/13 10:01:09;;;;;;;28.50;26.97;;;14.40;99.90;;;;;;4349269;33;20584;-63
2021/10/13 10:03:39;;;;;;;26.33;25.13;;;14.40;99.90;;;;;;4349906;33;20168;-64
2021/10/13 10:06:07;;;;;;;26.60;25.40;;;14.40;99.90;;;;;;4349772;33;20253;-63
2021/10/13 10:09:08;;;;;;;25.30;24.03;;;14.20;99.90;;;;;;4348391;33;20200;-64
2021/10/13 10:11:36;;;;;;;27.47;25.83;;;14.20;99.90;;;;;;4349772;33;20472;-64
2021/10/13 10:14:04;;;;;;;25.13;23.53;;;14.00;99.90;;;;;;4350221;33;20452;-66
2021/10/13 10:16:37;;;;;;;24.97;23.83;;;14.00;99.90;;;;;;4350226;33;20212;-65
2021/10/13 10:19:21;;;;;;;25.47;24.03;;;14.20;99.90;;;;;;4349697;33;20188;-63
2021/10/13 10:21:53;;;;;;;24.30;22.90;;;14.80;99.90;;;;;;4350263;33;20163;-63
2021/10/13 10:24:29;;;;;;;26.67;25.47;;;15.50;99.90;;;;;;4349980;33;20549;-63
2021/10/13 10:27:22;;;;;;;21.77;20.67;;;16.00;99.90;;;;;;4348226;33;20183;-64
2021/10/13 10:29:50;;;;;;;22.87;21.67;;;16.10;99.90;;;;;;4348644;33;20161;-65
2021/10/13 10:32:18;;;;;;;21.30;20.20;;;15.90;99.90;;;;;;4348437;33;20499;-64
2021/10/13 10:35:12;;;;;;;22.60;21.47;;;15.80;99.90;;;;;;4348210;33;20141;-63
2021/10/13 10:37:40;;;;;;;26.70;25.47;;;15.60;99.90;;;;;;4302910;33;20195;-64
2021/10/13 10:40:10;;;;;;;25.03;23.73;;;15.50;99.90;;;;;;4300992;33;20268;-64
2021/10/13 10:42:58;;;;;;;23.07;21.83;;;15.40;99.90;;;;;;4291839;33;20218;-65
2021/10/13 10:45:32;;;;;;;26.97;24.83;;;15.50;99.90;;;;;;4311660;33;20489;-65
2021/10/13 10:48:13;;;;;;;25.30;23.97;;;15.60;99.90;;;;;;4300145;33;20236;-64
2021/10/13 10:51:08;;;;;;;20.77;19.60;;;15.70;99.90;;;;;;4305146;33;20571;-64
2021/10/13 10:53:40;;;;;;;21.63;20.27;;;15.30;99.90;;;;;;4307434;33;20162;-64
2021/10/13 10:56:29;;;;;;;24.70;23.00;;;15.70;99.90;;;;;;4308045;33;20145;-64
2021/10/13 10:59:11;;;;;;;20.90;19.60;;;15.80;99.90;;;;;;4300948;33;20189;-64
2021/10/13 11:01:59;;;;;;;21.57;20.33;;;15.80;99.90;;;;;;4302693;33;20158;-64
2021/10/13 11:04:26;;;;;;;25.77;24.33;;;15.80;99.90;;;;;;4305560;33;20549;-64
2021/10/13 11:06:54;;;;;;;26.13;24.00;;;15.70;99.90;;;;;;4303742;33;20193;-64
2021/10/13 11:09:24;;;;;;;25.40;23.80;;;15.50;99.90;;;;;;4302857;33;20167;-66
2021/10/13 11:11:51;;;;;;;24.43;23.03;;;14.90;99.90;;;;;;4303224;33;20560;-64
2021/10/13 11:14:21;;;;;;;27.37;26.17;;;14.60;99.90;;;;;;4315988;33;20230;-63
2021/10/13 11:16:54;;;;;;;28.03;26.73;;;14.40;99.90;;;;;;4334695;33;20573;-64
2021/10/13 11:19:23;;;;;;;33.10;31.40;;;13.90;99.90;;;;;;4335538;33;20152;-64
2021/10/13 11:22:03;;;;;;;30.33;28.97;;;13.50;99.90;;;;;;4348378;33;20481;-65
2021/10/13 11:24:30;;;;;;;31.13;29.63;;;13.40;99.90;;;;;;4349368;33;20132;-67
2021/10/13 11:26:57;;;;;;;35.93;34.13;;;13.50;99.90;;;;;;4348027;33;20226;-64
2021/10/13 11:29:27;;;;;;;29.53;27.93;;;13.70;99.90;;;;;;4348674;33;20136;-64
2021/10/13 11:32:06;;;;;;;29.07;27.63;;;13.90;99.90;;;;;;4349230;33;20133;-65
2021/10/13 11:34:33;;;;;;;29.00;27.50;;;14.10;99.90;;;;;;4344887;33;20156;-64
2021/10/13 11:37:01;;;;;;;31.30;29.83;;;14.40;99.90;;;;;;4344184;33;20162;-64
2021/10/13 11:39:31;;;;;;;29.63;28.33;;;14.80;99.90;;;;;;4351641;33;20145;-63
2021/10/13 11:41:59;;;;;;;30.57;29.07;;;14.90;99.90;;;;;;4353102;33;20165;-66
2021/10/13 11:44:28;;;;;;;35.33;33.47;;;15.00;99.90;;;;;;4351630;33;20195;-64
2021/10/13 11:46:57;;;;;;;29.23;27.73;;;15.10;99.90;;;;;;4362054;33;20162;-64
2021/10/13 11:49:24;;;;;;;28.20;26.40;;;15.30;99.90;;;;;;4361846;33;20136;-64
2021/10/13 11:52:12;;;;;;;33.83;32.13;;;14.80;99.90;;;;;;4356012;32;20143;-64
2021/10/13 11:54:42;;;;;;;27.77;26.40;;;14.80;99.90;;;;;;4346932;33;20216;-64
2021/10/13 11:57:10;;;;;;;33.10;31.33;;;14.50;99.90;;;;;;4348758;33;20149;-64
2021/10/13 11:59:38;;;;;;;30.50;28.80;;;14.50;99.90;;;;;;4337315;33;20196;-64
2021/10/13 12:02:17;;;;;;;28.67;27.13;;;14.60;99.90;;;;;;4342301;33;20136;-64
2021/10/13 12:04:52;;;;;;;27.40;25.83;;;15.10;99.90;;;;;;4349126;33;20223;-64
2021/10/13 12:07:23;;;;;;;26.23;24.83;;;15.50;99.90;;;;;;4348794;33;20166;-64
2021/10/13 12:09:58;;;;;;;24.83;23.30;;;15.50;99.90;;;;;;4353538;32;20175;-64
2021/10/13 12:12:26;;;;;;;23.60;22.20;;;15.10;99.90;;;;;;4351215;32;20512;-64
2021/10/13 12:14:53;;;;;;;26.00;24.80;;;15.10;99.90;;;;;;4350572;33;20208;-64
2021/10/13 12:17:27;;;;;;;27.43;25.93;;;14.90;99.90;;;;;;4352329;33;20183;-64
2021/10/13 12:19:54;;;;;;;27.00;25.37;;;15.00;99.90;;;;;;4349245;33;20147;-64
2021/10/13 12:22:23;;;;;;;30.83;28.60;;;15.10;99.90;;;;;;4352702;32;20260;-64
2021/10/13 12:24:50;;;;;;;27.13;25.17;;;14.80;99.90;;;;;;4351398;32;20228;-65
2021/10/13 12:27:30;;;;;;;29.00;27.57;;;14.50;99.90;;;;;;4352575;32;20256;-64
2021/10/13 12:29:59;;;;;;;27.93;26.63;;;14.10;99.90;;;;;;4354013;32;20237;-65
2021/10/13 12:32:28;;;;;;;27.63;26.00;;;13.90;99.90;;;;;;4351240;32;20137;-64
2021/10/13 12:35:11;;;;;;;29.63;27.87;;;13.80;99.90;;;;;;4349975;32;20574;-67
2021/10/13 12:37:47;;;;;;;29.37;27.77;;;13.70;99.90;;;;;;4346201;33;20217;-64
2021/10/13 12:40:15;;;;;;;26.40;25.00;;;13.80;99.90;;;;;;4341556;33;20664;-64